Terminal Aerodrome Forecast
Issued by NWS Denver/Boulder, CO

Home | Current Version | Previous Version | Text Only | Print | Product List | Glossary On
Versions: 1 2 3 4 5 6 7 8 9 10 11 12 13 14 15 16 17 18 19 20 21 22 23 24 25 26 27 28 29 30 31 32 33 34 35 36 37 38 39 40 41
000
FTUS45 KBOU 010045 AAA
TAFDEN
TAF AMD
KDEN 010045Z 0101/0206 06008KT P6SM SCT035 BKN060
      TEMPO 0101/0104 6SM -SHRA BKN035
     FM010500 13007KT P6SM SCT025 BKN040
     FM011000 18005KT P6SM VCFG SCT015 BKN020
     FM011500 14006KT P6SM SCT040 SCT060
     FM012000 12009KT P6SM SCT035 BKN070
     FM020100 16007KT P6SM SCT070 BKN120=

USA.gov is the U.S. government's official web portal to all federal, state and local government web resources and services.